Time;durP1;ratioP1;P1;durP2;ratioP2;P2;SDS_P1;SDS_P2;PMS_P1;PMS_P2;Temp;Humidity;BMP_temperature;BMP_pressure;BME280_temperature;BME280_humidity;BME280_pressure;Samples;Min_cycle;Max_cycle;Signal;HPM_P1;HPM_P2
2024/05/08 00:01:49;;;;;;;6.47;5.97;;;12.90;99.90;;;;;;5416979;26;20328;-86
2024/05/08 00:04:18;;;;;;;7.03;6.53;;;12.90;99.90;;;;;;5409498;26;20907;-86
2024/05/08 00:06:46;;;;;;;7.32;6.60;;;12.80;99.90;;;;;;5410095;26;20703;-86
2024/05/08 00:09:15;;;;;;;7.68;7.07;;;12.70;99.90;;;;;;5412724;26;20736;-86
2024/05/08 00:11:46;;;;;;;7.28;6.47;;;12.70;99.90;;;;;;5408059;26;20316;-85
2024/05/08 00:14:15;;;;;;;6.60;6.00;;;12.70;99.90;;;;;;5398375;26;20357;-86
2024/05/08 00:16:44;;;;;;;7.10;6.60;;;12.70;99.90;;;;;;5407400;26;20242;-87
2024/05/08 00:19:15;;;;;;;7.22;6.63;;;12.70;99.90;;;;;;5409835;26;20319;-85
2024/05/08 00:21:44;;;;;;;8.18;7.53;;;12.60;99.90;;;;;;5415892;26;20854;-85
2024/05/08 00:24:12;;;;;;;7.72;6.93;;;12.60;99.90;;;;;;5416540;26;20361;-86
2024/05/08 00:26:41;;;;;;;7.45;6.93;;;12.60;99.90;;;;;;5411695;26;20346;-87
2024/05/08 00:29:12;;;;;;;7.28;6.55;;;12.50;99.90;;;;;;5404852;26;20322;-85
2024/05/08 00:31:41;;;;;;;7.30;6.60;;;12.50;99.90;;;;;;5422960;26;20307;-86
2024/05/08 00:34:10;;;;;;;7.57;6.87;;;12.60;99.90;;;;;;5405353;26;20656;-86
2024/05/08 00:36:39;;;;;;;7.85;7.25;;;12.50;99.90;;;;;;5415853;26;20567;-87
2024/05/08 00:39:08;;;;;;;8.10;7.40;;;12.60;99.90;;;;;;5391527;26;20292;-87
2024/05/08 00:41:39;;;;;;;7.80;7.10;;;12.60;99.90;;;;;;5416393;26;20295;-88
2024/05/08 00:44:07;;;;;;;8.27;7.68;;;12.50;99.90;;;;;;5416263;26;20242;-84
2024/05/08 00:46:39;;;;;;;7.75;7.15;;;12.50;99.90;;;;;;5416088;26;20245;-88
2024/05/08 00:49:08;;;;;;;8.93;8.13;;;12.40;99.90;;;;;;5416593;26;20369;-86
2024/05/08 00:51:37;;;;;;;8.90;8.07;;;12.40;99.90;;;;;;5416484;26;20329;-87
2024/05/08 00:54:07;;;;;;;9.13;8.43;;;12.40;99.90;;;;;;5416614;26;20374;-87
2024/05/08 00:56:37;;;;;;;9.35;8.60;;;12.40;99.90;;;;;;5416588;26;20233;-87
2024/05/08 00:59:06;;;;;;;8.48;7.78;;;12.50;99.90;;;;;;5416482;26;20280;-87
2024/05/08 01:01:37;;;;;;;8.85;8.13;;;12.40;99.90;;;;;;5416227;26;20234;-86
2024/05/08 01:04:06;;;;;;;9.50;8.60;;;12.40;99.90;;;;;;5416158;26;20337;-87
2024/05/08 01:06:35;;;;;;;8.75;7.95;;;12.40;99.90;;;;;;5415524;26;20308;-86
2024/05/08 01:09:03;;;;;;;8.95;8.25;;;12.40;99.90;;;;;;5416945;26;20345;-86
2024/05/08 01:11:32;;;;;;;10.27;9.38;;;12.40;99.90;;;;;;5416589;26;20309;-86
2024/05/08 01:14:02;;;;;;;9.32;8.38;;;12.40;99.90;;;;;;5416779;26;20302;-85
2024/05/08 01:16:31;;;;;;;8.73;8.03;;;12.30;99.90;;;;;;5417946;26;20272;-86
2024/05/08 01:19:02;;;;;;;9.70;8.90;;;12.40;99.90;;;;;;5417022;26;20355;-86
2024/05/08 01:21:31;;;;;;;9.47;8.57;;;12.30;99.90;;;;;;5417495;26;20625;-86
2024/05/08 01:24:14;;;;;;;9.97;8.97;;;12.30;99.90;;;;;;5417658;26;20816;-87
2024/05/08 01:26:45;;;;;;;9.17;8.43;;;12.30;99.90;;;;;;5417600;26;20225;-84
2024/05/08 01:29:14;;;;;;;9.20;8.40;;;12.30;99.90;;;;;;5417511;26;20301;-86
2024/05/08 01:31:45;;;;;;;9.03;8.23;;;12.20;99.90;;;;;;5417973;26;20281;-85
2024/05/08 01:34:14;;;;;;;8.77;8.10;;;12.20;99.90;;;;;;5416994;26;20249;-84
2024/05/08 01:36:42;;;;;;;8.80;8.10;;;12.20;99.90;;;;;;5417075;26;20233;-85
2024/05/08 01:39:14;;;;;;;9.13;8.43;;;12.20;99.90;;;;;;5416733;26;20241;-84
2024/05/08 01:41:50;;;;;;;9.23;8.43;;;12.20;99.90;;;;;;5416506;26;20241;-85
2024/05/08 01:44:19;;;;;;;9.53;8.80;;;12.20;99.90;;;;;;5417757;26;20420;-86
2024/05/08 01:46:48;;;;;;;8.57;7.77;;;12.20;99.90;;;;;;5416172;26;20253;-85
2024/05/08 01:49:17;;;;;;;8.88;8.07;;;12.10;99.90;;;;;;5416492;26;20284;-85
2024/05/08 01:51:49;;;;;;;8.40;7.70;;;12.20;99.90;;;;;;5416892;26;20221;-83
2024/05/08 01:54:25;;;;;;;9.83;8.93;;;12.20;99.90;;;;;;5417067;26;20268;-83
2024/05/08 01:56:54;;;;;;;7.82;7.22;;;12.20;99.90;;;;;;5416621;26;20233;-84
2024/05/08 01:59:23;;;;;;;8.85;8.25;;;12.20;99.90;;;;;;5416539;26;20291;-84
2024/05/08 02:01:52;;;;;;;9.10;8.40;;;12.20;99.90;;;;;;5416181;26;20230;-84
2024/05/08 02:04:20;;;;;;;9.20;8.50;;;12.20;99.90;;;;;;5416092;26;20603;-81
2024/05/08 02:06:49;;;;;;;8.27;7.57;;;12.30;99.90;;;;;;5416075;26;20351;-85
2024/05/08 02:09:20;;;;;;;8.73;7.93;;;12.20;99.90;;;;;;5417563;26;20301;-85
2024/05/08 02:11:50;;;;;;;9.00;8.20;;;12.20;99.90;;;;;;5416612;26;20326;-84
2024/05/08 02:14:19;;;;;;;8.80;8.02;;;12.10;99.90;;;;;;5416375;26;20233;-85
2024/05/08 02:16:48;;;;;;;9.67;8.83;;;12.10;99.90;;;;;;5416832;26;20303;-84
2024/05/08 02:19:17;;;;;;;9.90;9.00;;;12.10;99.90;;;;;;5416597;26;20245;-83
2024/05/08 02:21:46;;;;;;;9.93;9.03;;;12.00;99.90;;;;;;5416767;26;20330;-84
2024/05/08 02:24:14;;;;;;;9.15;8.45;;;12.00;99.90;;;;;;5415410;26;20351;-84
2024/05/08 02:26:46;;;;;;;9.33;8.57;;;12.00;99.90;;;;;;5415760;26;20264;-85
2024/05/08 02:29:14;;;;;;;9.47;8.67;;;11.90;99.90;;;;;;5416351;26;20301;-83
2024/05/08 02:31:43;;;;;;;10.45;9.55;;;11.90;99.90;;;;;;5416985;26;20289;-84
2024/05/08 02:34:12;;;;;;;10.52;9.57;;;11.90;99.90;;;;;;5417519;26;20273;-83
2024/05/08 02:36:40;;;;;;;10.27;9.47;;;11.80;99.90;;;;;;5417850;26;20760;-84
2024/05/08 02:39:11;;;;;;;10.80;9.97;;;11.80;99.90;;;;;;5418344;26;20301;-84
2024/05/08 02:41:39;;;;;;;10.53;9.73;;;11.80;99.90;;;;;;5417463;26;20289;-85
2024/05/08 02:44:11;;;;;;;10.73;9.80;;;11.70;99.90;;;;;;5417495;26;20233;-83
2024/05/08 02:46:39;;;;;;;11.33;10.43;;;11.80;99.90;;;;;;5416717;26;20676;-85
2024/05/08 02:49:08;;;;;;;10.93;9.93;;;11.80;99.90;;;;;;5416634;26;20241;-83
2024/05/08 02:51:37;;;;;;;11.00;10.00;;;11.80;99.90;;;;;;5416418;26;20317;-84
2024/05/08 02:54:06;;;;;;;10.07;9.17;;;11.80;99.90;;;;;;5416266;26;20234;-84
2024/05/08 02:56:34;;;;;;;10.00;9.10;;;11.80;99.90;;;;;;5416439;26;20229;-84
2024/05/08 02:59:03;;;;;;;9.97;9.07;;;11.80;99.90;;;;;;5416233;26;20783;-84
2024/05/08 03:01:34;;;;;;;10.10;9.20;;;11.90;99.90;;;;;;5416587;26;20273;-84
2024/05/08 03:04:03;;;;;;;9.40;8.63;;;11.90;99.90;;;;;;5416285;26;20289;-83
2024/05/08 03:06:32;;;;;;;9.90;9.10;;;12.00;99.90;;;;;;5416172;26;20731;-83
2024/05/08 03:09:00;;;;;;;10.23;9.33;;;12.00;99.90;;;;;;5416062;26;20237;-83
2024/05/08 03:11:29;;;;;;;10.50;9.60;;;11.90;99.90;;;;;;5416198;26;20329;-83
2024/05/08 03:13:58;;;;;;;10.23;9.37;;;11.90;99.90;;;;;;5404818;26;20364;-83
2024/05/08 03:16:27;;;;;;;10.50;9.57;;;11.80;99.90;;;;;;5380411;26;20340;-83
2024/05/08 03:18:58;;;;;;;10.60;9.70;;;11.80;99.90;;;;;;5355751;26;20251;-84
2024/05/08 03:21:29;;;;;;;10.70;9.80;;;11.70;99.90;;;;;;5345814;26;20306;-82
2024/05/08 03:23:58;;;;;;;10.30;9.37;;;11.70;99.90;;;;;;5345374;26;20740;-83
2024/05/08 03:26:27;;;;;;;9.63;8.83;;;11.70;99.90;;;;;;5345277;26;20297;-84
2024/05/08 03:28:56;;;;;;;10.40;9.60;;;11.70;99.90;;;;;;5346195;26;20673;-83
2024/05/08 03:31:24;;;;;;;9.93;9.13;;;11.70;99.90;;;;;;5351592;26;20757;-82
2024/05/08 03:33:53;;;;;;;9.80;8.97;;;11.80;99.90;;;;;;5384102;26;20226;-83
2024/05/08 03:36:25;;;;;;;10.00;9.10;;;11.70;99.90;;;;;;5383653;26;20316;-83
2024/05/08 03:38:53;;;;;;;9.67;8.87;;;11.70;99.90;;;;;;5383490;26;20253;-83
2024/05/08 03:41:22;;;;;;;9.80;8.90;;;11.60;99.90;;;;;;5383539;26;20951;-83
2024/05/08 03:43:51;;;;;;;10.40;9.50;;;11.60;99.90;;;;;;5383582;26;20231;-83
2024/05/08 03:46:20;;;;;;;10.00;9.20;;;11.70;99.90;;;;;;5394517;26;20237;-83
2024/05/08 03:48:49;;;;;;;9.90;9.10;;;11.70;99.90;;;;;;5419151;26;20230;-82
2024/05/08 03:51:18;;;;;;;10.30;9.47;;;11.70;99.90;;;;;;5418926;26;20229;-84
2024/05/08 03:53:49;;;;;;;9.47;8.67;;;11.60;99.90;;;;;;5419017;26;20354;-82
2024/05/08 03:56:18;;;;;;;8.67;7.90;;;11.60;99.90;;;;;;5418595;26;20234;-83
2024/05/08 03:58:47;;;;;;;9.30;8.50;;;11.60;99.90;;;;;;5418338;26;20233;-83
2024/05/08 04:01:15;;;;;;;9.93;9.07;;;11.60;99.90;;;;;;5418426;26;20245;-82
2024/05/08 04:03:44;;;;;;;9.50;8.70;;;11.50;99.90;;;;;;5418150;26;20225;-83
2024/05/08 04:06:13;;;;;;;9.10;8.30;;;11.50;99.90;;;;;;5418054;26;20966;-83
2024/05/08 04:08:44;;;;;;;10.33;9.43;;;11.60;99.90;;;;;;5418334;26;20627;-83
2024/05/08 04:11:16;;;;;;;9.60;8.80;;;11.60;99.90;;;;;;5418186;26;20724;-82
2024/05/08 04:13:45;;;;;;;10.03;9.13;;;11.60;99.90;;;;;;5417744;26;20744;-82
2024/05/08 04:16:13;;;;;;;10.13;9.30;;;11.60;99.90;;;;;;5417646;26;20296;-82
2024/05/08 04:18:46;;;;;;;10.43;9.57;;;11.60;99.90;;;;;;5416961;26;20330;-83
2024/05/08 04:21:15;;;;;;;9.40;8.63;;;11.60;99.90;;;;;;5416796;26;20606;-82
2024/05/08 04:23:43;;;;;;;9.83;9.03;;;11.60;99.90;;;;;;5416935;26;20297;-82
2024/05/08 04:26:12;;;;;;;10.17;9.30;;;11.60;99.90;;;;;;5416246;26;20293;-82
2024/05/08 04:28:47;;;;;;;9.53;8.63;;;11.60;99.90;;;;;;5416840;26;20361;-83
2024/05/08 04:31:19;;;;;;;9.47;8.67;;;11.70;99.90;;;;;;5416647;26;20249;-83
2024/05/08 04:33:47;;;;;;;9.97;9.17;;;11.70;99.90;;;;;;5416731;26;20246;-83
2024/05/08 04:36:17;;;;;;;9.30;8.50;;;11.70;99.90;;;;;;5415872;26;20341;-82
2024/05/08 04:38:45;;;;;;;10.10;9.20;;;11.70;99.90;;;;;;5416528;26;20233;-84
2024/05/08 04:41:14;;;;;;;10.03;9.07;;;11.70;99.90;;;;;;5417058;26;20296;-83
2024/05/08 04:43:49;;;;;;;9.53;8.70;;;11.60;99.90;;;;;;5417450;26;20296;-83
2024/05/08 04:46:17;;;;;;;10.87;9.97;;;11.60;99.90;;;;;;5422495;26;20313;-82
2024/05/08 04:48:46;;;;;;;11.67;10.63;;;11.50;99.90;;;;;;5422760;26;20277;-83
2024/05/08 04:51:15;;;;;;;10.20;9.30;;;11.30;99.90;;;;;;5420222;26;20319;-81
2024/05/08 04:53:43;;;;;;;11.20;10.20;;;11.10;99.90;;;;;;5422005;26;20245;-82
2024/05/08 04:56:12;;;;;;;10.67;9.77;;;11.20;99.90;;;;;;5405258;26;20308;-82
2024/05/08 04:58:41;;;;;;;10.30;9.40;;;11.30;99.90;;;;;;5414157;26;20264;-83
2024/05/08 05:01:12;;;;;;;10.77;9.77;;;11.30;99.90;;;;;;5425625;26;20234;-82
2024/05/08 05:03:41;;;;;;;10.93;10.03;;;11.30;99.90;;;;;;5424602;26;20245;-83
2024/05/08 05:06:10;;;;;;;10.63;9.73;;;11.30;99.90;;;;;;5435941;26;20250;-83
2024/05/08 05:08:38;;;;;;;10.33;9.43;;;11.30;99.90;;;;;;5403813;26;20341;-83
2024/05/08 05:11:12;;;;;;;10.80;9.80;;;11.30;99.90;;;;;;5421664;26;20359;-83
2024/05/08 05:13:40;;;;;;;11.30;10.37;;;11.30;99.90;;;;;;5428353;26;20281;-83
2024/05/08 05:16:12;;;;;;;11.07;10.00;;;11.40;99.90;;;;;;5426604;26;20281;-84
2024/05/08 05:18:40;;;;;;;10.13;9.23;;;11.40;99.90;;;;;;5422887;26;20285;-82
2024/05/08 05:21:09;;;;;;;11.40;10.40;;;11.40;99.90;;;;;;5424012;26;20293;-83
2024/05/08 05:23:38;;;;;;;10.13;9.30;;;11.40;99.90;;;;;;5423981;26;20229;-84
2024/05/08 05:26:07;;;;;;;9.77;8.87;;;11.30;99.90;;;;;;5420211;26;20229;-83
2024/05/08 05:28:35;;;;;;;9.90;9.00;;;11.40;99.90;;;;;;5419767;26;20226;-84
2024/05/08 05:33:52;;;;;;;8.80;8.10;;;11.50;99.90;;;;;;5424316;26;20263;-83
2024/05/08 05:36:21;;;;;;;9.63;8.77;;;11.40;99.90;;;;;;5417071;26;20247;-83
2024/05/08 05:38:52;;;;;;;9.23;8.33;;;11.30;99.90;;;;;;5421083;26;20237;-83
2024/05/08 05:41:21;;;;;;;9.40;8.40;;;11.20;99.90;;;;;;5420872;26;20276;-83
2024/05/08 05:49:05;;;;;;;8.70;7.90;;;11.40;99.90;;;;;;5409417;26;20842;-79
2024/05/08 05:51:33;;;;;;;8.87;7.00;;;11.40;99.90;;;;;;5377598;26;22351;-79
2024/05/08 05:54:02;;;;;;;8.13;7.33;;;11.40;99.90;;;;;;5378471;26;20357;-78
2024/05/08 05:56:33;;;;;;;7.50;6.80;;;11.30;99.90;;;;;;5385530;26;20272;-78
2024/05/08 05:59:02;;;;;;;8.03;7.33;;;11.30;99.90;;;;;;5382412;26;20238;-79
2024/05/08 06:01:31;;;;;;;7.53;6.83;;;11.30;99.90;;;;;;5377702;26;20254;-79
2024/05/08 06:04:00;;;;;;;7.60;6.90;;;11.30;99.90;;;;;;5376613;26;20254;-80
2024/05/08 06:06:31;;;;;;;7.27;6.57;;;11.30;99.90;;;;;;5377671;26;20365;-79
2024/05/08 06:09:00;;;;;;;7.53;6.83;;;11.40;99.90;;;;;;5381263;26;20281;-77
2024/05/08 06:11:28;;;;;;;7.27;6.57;;;11.40;99.90;;;;;;5381038;26;20246;-78
2024/05/08 06:14:00;;;;;;;6.93;6.33;;;11.40;99.90;;;;;;5380459;26;20235;-78
2024/05/08 06:16:29;;;;;;;6.53;5.93;;;11.40;99.90;;;;;;5380199;26;20633;-77
2024/05/08 06:18:57;;;;;;;5.57;5.00;;;11.40;99.90;;;;;;5376980;26;20353;-77
2024/05/08 06:21:27;;;;;;;6.17;5.67;;;11.40;99.90;;;;;;5385868;26;20341;-77
2024/05/08 06:23:59;;;;;;;6.60;5.90;;;11.40;99.90;;;;;;5388253;26;20343;-77
2024/05/08 06:26:28;;;;;;;6.47;5.87;;;11.50;99.90;;;;;;5377453;26;20242;-78
2024/05/08 06:28:56;;;;;;;6.50;5.90;;;11.40;99.90;;;;;;5383524;26;20717;-77
2024/05/08 06:31:25;;;;;;;6.23;5.67;;;11.40;99.90;;;;;;5367128;26;20258;-78
2024/05/08 06:33:53;;;;;;;6.00;5.50;;;11.50;99.90;;;;;;5378683;26;20238;-78
2024/05/08 06:36:22;;;;;;;6.20;5.70;;;11.50;99.90;;;;;;5378593;26;20251;-78
2024/05/08 06:38:51;;;;;;;6.23;5.63;;;11.60;99.90;;;;;;5380160;26;20354;-79
2024/05/08 06:41:23;;;;;;;5.17;4.77;;;11.70;99.90;;;;;;5381707;26;20239;-79
2024/05/08 06:43:51;;;;;;;5.73;5.23;;;11.70;99.90;;;;;;5388898;26;20241;-80
2024/05/08 06:46:20;;;;;;;5.60;5.10;;;11.80;99.90;;;;;;5380698;26;20344;-80
2024/05/08 06:48:49;;;;;;;5.80;5.30;;;11.80;99.90;;;;;;5385144;26;20329;-79
2024/05/08 06:51:18;;;;;;;6.17;5.63;;;11.80;99.90;;;;;;5380425;26;20723;-79
2024/05/08 06:53:46;;;;;;;6.23;5.63;;;11.70;99.90;;;;;;5388042;26;20242;-79
2024/05/08 06:56:15;;;;;;;5.57;5.07;;;11.70;99.90;;;;;;5391800;26;20250;-80
2024/05/08 06:58:47;;;;;;;6.10;5.50;;;11.60;99.90;;;;;;5380020;26;20817;-79
2024/05/08 07:01:15;;;;;;;5.57;5.07;;;11.70;99.90;;;;;;5391943;26;20366;-79
2024/05/08 07:03:44;;;;;;;5.70;5.20;;;11.70;99.90;;;;;;5384830;26;20312;-78
2024/05/08 07:06:13;;;;;;;5.70;5.20;;;11.70;99.90;;;;;;5373838;26;20311;-78
2024/05/08 07:08:42;;;;;;;5.60;5.10;;;11.70;99.90;;;;;;5379567;26;20286;-78
2024/05/08 07:11:11;;;;;;;5.63;5.13;;;11.60;99.90;;;;;;5390495;26;20245;-78
2024/05/08 07:13:39;;;;;;;5.50;5.00;;;11.60;99.90;;;;;;5390301;26;20277;-80
2024/05/08 07:16:12;;;;;;;5.73;5.23;;;11.50;99.90;;;;;;5391853;26;20290;-80
2024/05/08 07:18:40;;;;;;;6.07;5.57;;;11.60;99.90;;;;;;5380309;26;20369;-79
2024/05/08 07:21:09;;;;;;;6.77;6.17;;;11.60;99.90;;;;;;5385394;26;20356;-79
2024/05/08 07:23:38;;;;;;;7.10;6.50;;;11.60;99.90;;;;;;5379752;26;20328;-78
2024/05/08 07:26:06;;;;;;;6.93;6.33;;;11.60;99.90;;;;;;5373546;26;20682;-78
2024/05/08 07:28:35;;;;;;;7.87;7.17;;;11.60;99.90;;;;;;5384209;26;20250;-79
2024/05/08 07:31:04;;;;;;;7.97;7.27;;;11.60;99.90;;;;;;5373827;26;20266;-78
2024/05/08 07:33:36;;;;;;;7.53;6.83;;;11.60;99.90;;;;;;5378158;26;20250;-78
2024/05/08 07:36:06;;;;;;;6.70;6.10;;;11.60;99.90;;;;;;5378147;26;20357;-78
2024/05/08 07:38:35;;;;;;;8.10;7.40;;;11.70;99.90;;;;;;5384203;26;20372;-78
2024/05/08 07:41:03;;;;;;;7.80;7.10;;;11.70;99.90;;;;;;5382739;26;20281;-78
2024/05/08 07:43:32;;;;;;;7.50;6.80;;;11.70;99.90;;;;;;5381250;26;20840;-78
2024/05/08 07:46:00;;;;;;;7.83;7.13;;;11.80;99.90;;;;;;5380680;26;20238;-77
2024/05/08 07:48:29;;;;;;;7.80;7.10;;;11.80;99.90;;;;;;5381356;26;20246;-78
2024/05/08 07:51:01;;;;;;;8.50;7.70;;;11.80;99.90;;;;;;5386198;26;20277;-77
2024/05/08 07:53:30;;;;;;;9.00;8.10;;;11.70;99.90;;;;;;5380564;26;20601;-77
2024/05/08 07:55:59;;;;;;;9.83;8.57;;;11.80;99.90;;;;;;5377638;26;20650;-76
2024/05/08 07:58:27;;;;;;;9.70;8.80;;;11.70;99.90;;;;;;5380875;26;20722;-76
2024/05/08 08:00:56;;;;;;;9.13;8.23;;;11.60;99.90;;;;;;5379890;26;20370;-78
2024/05/08 08:03:22;;;;;;;9.93;9.03;;;11.70;99.90;;;;;;5382869;26;20342;-76
2024/05/08 08:05:51;;;;;;;10.10;9.20;;;11.60;99.90;;;;;;5390201;26;20348;-77
2024/05/08 08:08:22;;;;;;;10.03;8.93;;;11.60;99.90;;;;;;5389635;26;20360;-77
2024/05/08 08:10:51;;;;;;;9.60;8.70;;;11.60;99.90;;;;;;5379264;26;20404;-76
2024/05/08 08:13:19;;;;;;;10.93;9.83;;;11.70;99.90;;;;;;5390477;26;20284;-76
2024/05/08 08:15:49;;;;;;;11.47;10.40;;;11.60;99.90;;;;;;5383651;26;20310;-76
2024/05/08 08:18:18;;;;;;;10.17;9.17;;;11.70;99.90;;;;;;5395993;26;20355;-76
2024/05/08 08:20:46;;;;;;;11.20;10.20;;;11.60;99.90;;;;;;5387091;26;20273;-76
2024/05/08 08:23:16;;;;;;;11.23;10.03;;;11.70;99.90;;;;;;5384384;26;20334;-75
2024/05/08 08:25:47;;;;;;;11.60;10.50;;;11.60;99.90;;;;;;5396404;26;20280;-77
2024/05/08 08:28:20;;;;;;;10.70;9.70;;;11.50;99.90;;;;;;5388043;26;20372;-77
2024/05/08 08:30:49;;;;;;;11.70;10.50;;;11.60;99.90;;;;;;5374521;26;20266;-76
2024/05/08 08:33:18;;;;;;;11.60;10.40;;;11.60;99.90;;;;;;5382442;26;20285;-75
2024/05/08 08:35:46;;;;;;;11.40;10.30;;;11.60;99.90;;;;;;5384746;26;20337;-76
2024/05/08 08:38:16;;;;;;;10.67;9.57;;;11.60;99.90;;;;;;5391552;26;20238;-77
2024/05/08 08:40:51;;;;;;;11.60;10.50;;;11.60;99.90;;;;;;5383262;26;20297;-76
2024/05/08 08:43:30;;;;;;;10.87;9.77;;;11.60;99.90;;;;;;5384595;26;20288;-77
2024/05/08 08:46:09;;;;;;;10.63;9.63;;;11.60;99.90;;;;;;5377471;26;20293;-75
2024/05/08 08:48:38;;;;;;;10.60;9.60;;;11.60;99.90;;;;;;5381444;26;20368;-76
2024/05/08 08:51:11;;;;;;;10.67;9.67;;;11.60;99.90;;;;;;5384725;26;20843;-76
2024/05/08 08:53:40;;;;;;;10.10;9.13;;;11.70;99.90;;;;;;5384030;26;20243;-76
2024/05/08 08:56:11;;;;;;;10.03;9.10;;;11.80;99.90;;;;;;5396736;26;20305;-76
2024/05/08 08:58:42;;;;;;;10.67;9.67;;;11.80;99.90;;;;;;5385064;26;20731;-76
2024/05/08 09:01:14;;;;;;;11.07;9.93;;;11.80;99.90;;;;;;5379335;26;20349;-76
2024/05/08 09:03:44;;;;;;;11.03;10.03;;;11.80;99.90;;;;;;5372518;26;20250;-76
2024/05/08 09:06:13;;;;;;;11.20;10.17;;;11.90;99.90;;;;;;5383501;26;20251;-76
2024/05/08 09:08:42;;;;;;;11.13;10.13;;;11.90;99.90;;;;;;5378413;26;20258;-76
2024/05/08 09:11:13;;;;;;;10.07;9.10;;;11.80;99.90;;;;;;5384245;26;20647;-76
2024/05/08 09:13:42;;;;;;;10.33;9.33;;;11.80;99.90;;;;;;5389383;26;20257;-76
2024/05/08 09:16:11;;;;;;;10.30;9.30;;;11.70;99.90;;;;;;5387033;26;20323;-77
2024/05/08 09:18:39;;;;;;;10.67;9.67;;;11.80;99.90;;;;;;5381889;26;20327;-77
2024/05/08 09:21:08;;;;;;;11.00;10.00;;;11.80;99.90;;;;;;5381004;26;20258;-77
2024/05/08 09:23:37;;;;;;;10.50;9.50;;;11.80;99.90;;;;;;5380821;26;20384;-77
2024/05/08 09:26:06;;;;;;;11.10;10.10;;;11.70;99.90;;;;;;5380199;26;20250;-77
2024/05/08 09:28:38;;;;;;;12.63;11.53;;;11.70;99.90;;;;;;5379706;26;20289;-77
2024/05/08 09:31:08;;;;;;;12.07;10.87;;;11.60;99.90;;;;;;5370843;26;20258;-76
2024/05/08 09:33:36;;;;;;;13.27;11.97;;;11.60;99.90;;;;;;5380970;26;20257;-76
2024/05/08 09:36:06;;;;;;;13.40;12.10;;;11.50;99.90;;;;;;5376719;26;20314;-75
2024/05/08 09:38:40;;;;;;;13.13;11.83;;;11.60;99.90;;;;;;5380759;26;20343;-76
2024/05/08 09:41:11;;;;;;;15.13;13.63;;;11.60;99.90;;;;;;5386117;26;20597;-75
2024/05/08 09:43:43;;;;;;;14.27;12.87;;;11.60;99.90;;;;;;5391732;26;20273;-75
2024/05/08 09:46:15;;;;;;;14.13;12.70;;;11.50;99.90;;;;;;5378913;26;20239;-75
2024/05/08 09:48:49;;;;;;;13.70;12.40;;;11.60;99.90;;;;;;5393263;26;20336;-75
2024/05/08 09:51:24;;;;;;;13.13;11.93;;;11.70;99.90;;;;;;5381467;26;20645;-76
2024/05/08 09:54:00;;;;;;;14.90;13.40;;;11.80;99.90;;;;;;5390829;26;20245;-77
2024/05/08 09:56:29;;;;;;;13.63;12.30;;;11.70;99.90;;;;;;5381439;26;20346;-75
2024/05/08 09:59:01;;;;;;;15.60;14.10;;;11.80;99.90;;;;;;5382042;26;20294;-75
2024/05/08 10:01:32;;;;;;;14.23;12.70;;;11.80;99.90;;;;;;5384204;26;20286;-75
2024/05/08 10:04:01;;;;;;;15.07;13.57;;;11.70;99.90;;;;;;5390210;26;20314;-75
2024/05/08 10:06:43;;;;;;;14.40;13.00;;;11.70;99.90;;;;;;5384931;26;20285;-76
2024/05/08 10:09:14;;;;;;;14.70;13.20;;;11.80;99.90;;;;;;5386227;26;20347;-75
2024/05/08 10:11:58;;;;;;;14.67;13.27;;;11.80;99.90;;;;;;5387631;26;20575;-75
2024/05/08 10:14:31;;;;;;;13.37;12.07;;;11.80;99.90;;;;;;5378368;26;20242;-75
2024/05/08 10:17:12;;;;;;;14.30;12.80;;;11.70;99.90;;;;;;5378312;26;20632;-75
2024/05/08 10:19:51;;;;;;;15.97;14.37;;;11.60;99.90;;;;;;5379035;26;20750;-75
2024/05/08 10:22:27;;;;;;;15.33;13.73;;;11.60;99.90;;;;;;5385160;26;20272;-75
2024/05/08 10:24:56;;;;;;;15.27;13.63;;;11.50;99.90;;;;;;5392604;26;20300;-76
2024/05/08 10:27:31;;;;;;;16.67;14.87;;;11.50;99.90;;;;;;5381014;26;20843;-76
2024/05/08 10:30:03;;;;;;;15.80;14.20;;;11.50;99.90;;;;;;5377001;26;20297;-76
2024/05/08 10:32:29;;;;;;;16.73;15.03;;;11.60;99.90;;;;;;5376539;26;20260;-76
2024/05/08 10:34:58;;;;;;;16.43;14.83;;;11.60;99.90;;;;;;5378861;26;20284;-75
2024/05/08 10:37:27;;;;;;;17.47;15.57;;;11.70;99.90;;;;;;5380559;26;20586;-75
2024/05/08 10:39:56;;;;;;;19.60;17.60;;;11.70;99.90;;;;;;5380288;26;20293;-76
2024/05/08 10:42:25;;;;;;;18.17;16.37;;;11.70;99.90;;;;;;5388355;26;20243;-75
2024/05/08 10:44:55;;;;;;;18.63;16.63;;;11.70;99.90;;;;;;5382105;26;20265;-75
2024/05/08 10:47:27;;;;;;;20.47;18.47;;;11.70;99.90;;;;;;5387357;26;20313;-75
2024/05/08 10:49:57;;;;;;;20.50;18.40;;;11.80;99.90;;;;;;5386178;26;20692;-75
2024/05/08 10:52:26;;;;;;;20.13;18.07;;;11.80;99.90;;;;;;5386932;26;20341;-75
2024/05/08 10:54:56;;;;;;;20.00;18.00;;;11.80;99.90;;;;;;5394674;26;20346;-76
2024/05/08 10:57:25;;;;;;;20.03;18.03;;;11.80;99.90;;;;;;5382419;26;20463;-75
2024/05/08 10:59:56;;;;;;;20.43;18.43;;;11.90;99.90;;;;;;5391936;26;20589;-75
2024/05/08 11:02:28;;;;;;;19.67;17.77;;;11.90;99.90;;;;;;5381975;26;20330;-76
2024/05/08 11:05:06;;;;;;;21.73;19.57;;;11.90;99.90;;;;;;5394968;26;20593;-75
2024/05/08 11:07:44;;;;;;;20.63;18.63;;;11.90;99.90;;;;;;5382306;26;20725;-75
2024/05/08 11:10:13;;;;;;;19.97;18.07;;;11.90;99.90;;;;;;5392371;26;20299;-74
2024/05/08 11:12:43;;;;;;;21.87;19.53;;;11.90;99.90;;;;;;5381731;26;20591;-75
2024/05/08 11:15:12;;;;;;;21.97;19.70;;;11.80;99.90;;;;;;5383801;26;20284;-75
2024/05/08 11:17:43;;;;;;;20.53;18.43;;;11.70;99.90;;;;;;5376066;26;20238;-75
2024/05/08 11:20:12;;;;;;;21.47;19.17;;;11.60;99.90;;;;;;5383593;26;20257;-75
2024/05/08 11:22:43;;;;;;;21.53;19.27;;;11.60;99.90;;;;;;5382082;26;20242;-75
2024/05/08 11:25:12;;;;;;;21.63;19.43;;;11.60;99.90;;;;;;5382604;26;20276;-77
2024/05/08 11:27:45;;;;;;;21.50;19.30;;;11.70;99.90;;;;;;5381038;26;20335;-76
2024/05/08 11:30:14;;;;;;;20.13;18.23;;;11.80;99.90;;;;;;5376211;26;20280;-76
2024/05/08 11:32:46;;;;;;;20.53;18.40;;;11.80;99.90;;;;;;5378011;26;20324;-76
2024/05/08 11:35:14;;;;;;;21.50;19.30;;;11.80;99.90;;;;;;5385693;26;20250;-76
2024/05/08 11:37:43;;;;;;;18.63;16.83;;;11.80;99.90;;;;;;5378119;26;20235;-76
2024/05/08 11:40:12;;;;;;;19.23;17.23;;;11.90;99.90;;;;;;5383192;26;20314;-76
2024/05/08 11:42:41;;;;;;;19.03;17.03;;;11.90;99.90;;;;;;5391319;26;20774;-77
2024/05/08 11:45:10;;;;;;;18.37;16.53;;;12.00;99.90;;;;;;5382012;26;20235;-76
2024/05/08 11:47:39;;;;;;;19.13;17.23;;;11.90;99.90;;;;;;5378961;26;20310;-76
2024/05/08 11:50:11;;;;;;;19.63;17.73;;;12.00;99.90;;;;;;5380118;26;20290;-76
2024/05/08 11:52:40;;;;;;;18.43;16.73;;;12.10;99.90;;;;;;5382772;26;20270;-76
2024/05/08 11:55:09;;;;;;;18.10;16.30;;;12.00;99.90;;;;;;5382921;26;20731;-76
2024/05/08 11:57:37;;;;;;;20.27;18.27;;;12.10;99.90;;;;;;5379802;26;20254;-76
2024/05/08 12:00:08;;;;;;;18.37;16.57;;;12.10;99.90;;;;;;5392930;26;20731;-76
2024/05/08 12:02:37;;;;;;;21.13;19.03;;;12.20;99.90;;;;;;5381662;26;20362;-76
2024/05/08 12:05:06;;;;;;;20.80;18.70;;;12.20;99.90;;;;;;5382262;26;20757;-78
2024/05/08 12:07:37;;;;;;;18.53;16.83;;;12.20;99.90;;;;;;5385684;26;20246;-76
2024/05/08 12:10:08;;;;;;;19.73;17.73;;;12.20;99.90;;;;;;5386014;26;20255;-77
2024/05/08 12:12:36;;;;;;;20.60;18.50;;;12.30;99.90;;;;;;5382147;26;20243;-76
2024/05/08 12:15:06;;;;;;;22.47;20.27;;;12.20;99.90;;;;;;5382505;26;20243;-76
2024/05/08 12:17:34;;;;;;;21.23;19.07;;;12.20;99.90;;;;;;5382061;26;20246;-76
2024/05/08 12:20:03;;;;;;;20.87;18.77;;;12.20;99.90;;;;;;5375896;26;20733;-76
2024/05/08 12:22:32;;;;;;;18.73;16.87;;;12.10;99.90;;;;;;5332092;26;20270;-76
2024/05/08 12:27:46;;;;;;;19.73;17.83;;;12.00;99.90;;;;;;5555018;25;20591;-75
2024/05/08 12:30:14;;;;;;;18.33;16.40;;;11.90;99.90;;;;;;5497554;25;21006;-75
2024/05/08 12:32:43;;;;;;;18.67;16.77;;;11.90;99.90;;;;;;5468198;25;20733;-76
2024/05/08 12:35:12;;;;;;;17.90;16.13;;;11.90;99.90;;;;;;5485191;25;20315;-76
2024/05/08 12:37:41;;;;;;;18.67;16.90;;;11.90;99.90;;;;;;5480674;26;20352;-75
2024/05/08 12:40:10;;;;;;;19.57;17.57;;;12.00;99.90;;;;;;5492956;26;20247;-76
2024/05/08 12:42:39;;;;;;;22.07;19.77;;;12.00;99.90;;;;;;5499037;25;20306;-76
2024/05/08 12:45:10;;;;;;;20.63;18.53;;;11.90;99.90;;;;;;5487141;26;20285;-76
2024/05/08 12:47:40;;;;;;;22.57;20.33;;;11.90;99.90;;;;;;5485152;25;20235;-76
2024/05/08 12:50:09;;;;;;;21.23;19.13;;;12.00;99.90;;;;;;5495200;25;20246;-76
2024/05/08 12:52:37;;;;;;;18.73;16.77;;;12.10;99.90;;;;;;5481695;26;20279;-75
2024/05/08 12:55:06;;;;;;;18.23;16.30;;;12.00;99.90;;;;;;5491180;25;20247;-75
2024/05/08 12:57:35;;;;;;;17.03;15.33;;;12.00;99.90;;;;;;5505307;25;20245;-76
2024/05/08 13:00:04;;;;;;;18.23;16.33;;;12.00;99.90;;;;;;5489834;25;20243;-75
2024/05/08 13:02:35;;;;;;;17.90;15.67;;;11.90;99.90;;;;;;5505255;25;20342;-76